Time;durP1;ratioP1;P1;durP2;ratioP2;P2;SDS_P1;SDS_P2;PMS_P1;PMS_P2;Temp;Humidity;BMP_temperature;BMP_pressure;BME280_temperature;BME280_humidity;BME280_pressure;Samples;Min_cycle;Max_cycle;Signal;HPM_P1;HPM_P2
2023/08/01 00:00:43;;;;;;;762.85;568.38;;;;;;;;;;5106968;28;20011;-52
2023/08/01 00:03:08;;;;;;;732.33;533.00;;;;;;;;;;5110918;28;20019;-50
2023/08/01 00:05:33;;;;;;;711.17;547.60;;;;;;;;;;5090685;28;20063;-53
2023/08/01 00:07:59;;;;;;;731.67;538.42;;;;;;;;;;5091890;28;20016;-51
2023/08/01 00:10:24;;;;;;;751.03;537.28;;;;;;;;;;5092090;28;20095;-51
2023/08/01 00:12:49;;;;;;;749.05;514.20;;;;;;;;;;5092363;28;20047;-51
2023/08/01 00:15:14;;;;;;;765.13;596.72;;;;;;;;;;5091842;28;20052;-53
2023/08/01 00:17:40;;;;;;;764.13;588.15;;;;;;;;;;5092066;28;20114;-52
2023/08/01 00:20:06;;;;;;;762.55;600.47;;;;;;;;;;5091940;28;20028;-49
2023/08/01 00:22:32;;;;;;;761.53;572.40;;;;;;;;;;5091854;28;20043;-51
2023/08/01 00:24:57;;;;;;;795.72;623.70;;;;;;;;;;5091763;28;20032;-52
2023/08/01 00:27:24;;;;;;;800.15;563.35;;;;;;;;;;5091128;28;20044;-50
2023/08/01 00:29:49;;;;;;;803.38;594.55;;;;;;;;;;5091674;28;20385;-50
2023/08/01 00:32:15;;;;;;;785.63;578.50;;;;;;;;;;5072117;28;20039;-48
2023/08/01 00:34:40;;;;;;;781.20;594.63;;;;;;;;;;5091659;28;20038;-52
2023/08/01 00:37:05;;;;;;;771.78;577.05;;;;;;;;;;5092266;28;20427;-48
2023/08/01 00:39:31;;;;;;;726.28;583.50;;;;;;;;;;5091414;28;20023;-48
2023/08/01 00:41:56;;;;;;;745.45;581.83;;;;;;;;;;5091542;28;20518;-48
2023/08/01 00:44:21;;;;;;;757.42;583.83;;;;;;;;;;5091703;28;20053;-49
2023/08/01 00:46:47;;;;;;;778.33;579.90;;;;;;;;;;5091382;28;20016;-47
2023/08/01 00:49:14;;;;;;;762.10;595.10;;;;;;;;;;5106063;28;20032;-48
2023/08/01 00:51:39;;;;;;;764.10;550.72;;;;;;;;;;5091452;28;20049;-53
2023/08/01 00:54:05;;;;;;;737.42;565.13;;;;;;;;;;5090429;28;20104;-50
2023/08/01 00:56:31;;;;;;;715.53;555.85;;;;;;;;;;5091359;28;20074;-48
2023/08/01 00:58:56;;;;;;;718.40;573.30;;;;;;;;;;5091316;28;20032;-47
2023/08/01 01:01:22;;;;;;;717.63;574.47;;;;;;;;;;5091433;28;20452;-48
2023/08/01 01:03:48;;;;;;;726.22;571.55;;;;;;;;;;5091098;28;20389;-48
2023/08/01 01:06:22;;;;;;;736.60;564.10;;;;;;;;;;5090993;28;20445;-48
2023/08/01 01:08:47;;;;;;;738.70;565.67;;;;;;;;;;5090914;28;20479;-50
2023/08/01 01:11:13;;;;;;;733.85;507.00;;;;;;;;;;5093362;28;20044;-50
2023/08/01 01:13:39;;;;;;;727.22;552.22;;;;;;;;;;5111468;28;20484;-49
2023/08/01 01:16:04;;;;;;;753.80;572.17;;;;;;;;;;5110864;27;20052;-50
2023/08/01 01:18:30;;;;;;;759.58;577.60;;;;;;;;;;5111146;27;20030;-51
2023/08/01 01:20:55;;;;;;;739.42;569.60;;;;;;;;;;5111028;28;20384;-52
2023/08/01 01:23:21;;;;;;;746.13;572.60;;;;;;;;;;5110830;28;20016;-50
2023/08/01 01:25:47;;;;;;;746.20;541.70;;;;;;;;;;5111096;28;20031;-47
2023/08/01 01:28:13;;;;;;;747.25;559.50;;;;;;;;;;5110063;28;20614;-47
2023/08/01 01:30:39;;;;;;;739.67;552.83;;;;;;;;;;5111002;28;20035;-47
2023/08/01 01:33:04;;;;;;;749.20;534.63;;;;;;;;;;5110750;28;20603;-45
2023/08/01 01:35:30;;;;;;;773.28;533.72;;;;;;;;;;5125106;27;20035;-47
2023/08/01 01:37:55;;;;;;;737.08;569.67;;;;;;;;;;5110517;28;20032;-50
2023/08/01 01:40:20;;;;;;;729.83;573.70;;;;;;;;;;5110330;28;20030;-48
2023/08/01 01:42:46;;;;;;;753.47;548.63;;;;;;;;;;5110882;28;20464;-46
2023/08/01 01:45:11;;;;;;;732.55;555.65;;;;;;;;;;5108849;28;20019;-48
2023/08/01 01:47:36;;;;;;;731.75;586.67;;;;;;;;;;5090178;28;20543;-48
2023/08/01 01:50:03;;;;;;;753.65;589.15;;;;;;;;;;5089965;28;20071;-50
2023/08/01 01:52:28;;;;;;;717.70;560.00;;;;;;;;;;5054454;28;20452;-48
2023/08/01 01:54:53;;;;;;;792.53;580.00;;;;;;;;;;5090043;28;20109;-49
2023/08/01 01:57:18;;;;;;;822.92;586.88;;;;;;;;;;5090328;28;20028;-48
2023/08/01 01:59:44;;;;;;;854.05;550.92;;;;;;;;;;5096994;28;20019;-50
2023/08/01 02:02:09;;;;;;;827.15;537.72;;;;;;;;;;5108519;28;20027;-48
2023/08/01 02:04:34;;;;;;;807.15;563.13;;;;;;;;;;5090041;28;20028;-52
2023/08/01 02:07:00;;;;;;;834.90;559.75;;;;;;;;;;5089605;28;20323;-51
2023/08/01 02:09:25;;;;;;;811.47;543.97;;;;;;;;;;5090431;28;20028;-47
2023/08/01 02:11:50;;;;;;;818.90;517.15;;;;;;;;;;5090091;28;20115;-51
2023/08/01 02:14:15;;;;;;;783.35;539.70;;;;;;;;;;5090015;28;20043;-50
2023/08/01 02:16:41;;;;;;;774.38;523.30;;;;;;;;;;5090214;28;20034;-50
2023/08/01 02:19:06;;;;;;;794.35;500.42;;;;;;;;;;5090457;28;20031;-50
2023/08/01 02:21:31;;;;;;;825.47;512.20;;;;;;;;;;5089629;28;20024;-49
2023/08/01 02:23:56;;;;;;;775.25;491.77;;;;;;;;;;5089958;28;20241;-48
2023/08/01 02:26:23;;;;;;;799.22;519.65;;;;;;;;;;5089900;28;20043;-51
2023/08/01 02:28:49;;;;;;;827.03;510.58;;;;;;;;;;5090246;28;20364;-48
2023/08/01 02:31:15;;;;;;;817.78;485.33;;;;;;;;;;5090147;28;20024;-50
2023/08/01 02:33:40;;;;;;;823.35;431.35;;;;;;;;;;5089905;28;20028;-52
2023/08/01 02:36:05;;;;;;;838.90;573.45;;;;;;;;;;5090230;28;20024;-48
2023/08/01 02:38:31;;;;;;;744.63;515.28;;;;;;;;;;5089802;28;20032;-50
2023/08/01 02:40:56;;;;;;;764.83;537.40;;;;;;;;;;5089862;28;20020;-49
2023/08/01 02:43:21;;;;;;;773.63;519.40;;;;;;;;;;5089927;28;20103;-50
2023/08/01 02:45:46;;;;;;;804.25;503.98;;;;;;;;;;5089811;28;20028;-48
2023/08/01 02:48:12;;;;;;;775.75;492.42;;;;;;;;;;5089826;28;20467;-48
2023/08/01 02:50:37;;;;;;;783.50;487.20;;;;;;;;;;5070682;28;20032;-52
2023/08/01 02:53:02;;;;;;;810.10;501.48;;;;;;;;;;5094140;28;20016;-50
2023/08/01 02:55:27;;;;;;;821.65;496.10;;;;;;;;;;5093515;28;20094;-51
2023/08/01 02:57:53;;;;;;;847.50;485.08;;;;;;;;;;5093455;28;20095;-48
2023/08/01 03:00:18;;;;;;;771.78;516.13;;;;;;;;;;5073850;28;20085;-51
2023/08/01 03:02:43;;;;;;;792.97;498.65;;;;;;;;;;5093312;28;20035;-50
2023/08/01 03:05:09;;;;;;;823.38;509.45;;;;;;;;;;5092801;28;20036;-48
2023/08/01 03:07:34;;;;;;;736.28;526.42;;;;;;;;;;5092858;28;20032;-51
2023/08/01 03:09:59;;;;;;;838.83;518.92;;;;;;;;;;5093698;28;20047;-53
2023/08/01 03:12:25;;;;;;;817.50;527.25;;;;;;;;;;5096246;28;20468;-49
2023/08/01 03:14:50;;;;;;;846.22;489.08;;;;;;;;;;5092780;28;20048;-49
2023/08/01 03:17:16;;;;;;;862.47;536.28;;;;;;;;;;5093254;28;20134;-49
2023/08/01 03:19:41;;;;;;;856.17;498.50;;;;;;;;;;5093017;28;20020;-52
2023/08/01 03:22:07;;;;;;;818.45;470.10;;;;;;;;;;5110741;27;20381;-48
2023/08/01 03:24:32;;;;;;;771.42;496.67;;;;;;;;;;5111727;27;20024;-48
2023/08/01 03:26:58;;;;;;;852.08;516.80;;;;;;;;;;5098934;28;20024;-49
2023/08/01 03:29:23;;;;;;;870.38;550.05;;;;;;;;;;5092866;28;20031;-50
2023/08/01 03:31:48;;;;;;;873.28;585.65;;;;;;;;;;5099117;28;20122;-49
2023/08/01 03:34:13;;;;;;;835.95;555.00;;;;;;;;;;5113087;28;20039;-49
2023/08/01 03:36:39;;;;;;;839.65;463.08;;;;;;;;;;5110516;28;20122;-50
2023/08/01 03:39:04;;;;;;;815.60;422.52;;;;;;;;;;5113115;28;20465;-52
2023/08/01 03:41:29;;;;;;;802.85;437.40;;;;;;;;;;5110667;28;20036;-51
2023/08/01 03:43:55;;;;;;;831.67;415.50;;;;;;;;;;5112618;28;20091;-52
2023/08/01 03:46:20;;;;;;;846.03;467.02;;;;;;;;;;5110482;28;20028;-49
2023/08/01 03:48:45;;;;;;;850.75;488.20;;;;;;;;;;5112974;28;20028;-48
2023/08/01 03:51:10;;;;;;;839.40;482.50;;;;;;;;;;5110826;28;20115;-51
2023/08/01 03:53:36;;;;;;;826.88;449.38;;;;;;;;;;5104963;27;20429;-51
2023/08/01 03:56:02;;;;;;;859.15;473.75;;;;;;;;;;5092041;28;20035;-50
2023/08/01 03:58:27;;;;;;;730.60;471.08;;;;;;;;;;5112533;28;20028;-50
2023/08/01 04:00:53;;;;;;;750.97;473.75;;;;;;;;;;5111360;28;20031;-50
2023/08/01 04:03:18;;;;;;;728.80;470.75;;;;;;;;;;5092854;28;20431;-52
2023/08/01 04:05:43;;;;;;;762.13;488.05;;;;;;;;;;5092695;28;20032;-49
2023/08/01 04:08:09;;;;;;;741.35;526.85;;;;;;;;;;5093948;28;20380;-52
2023/08/01 04:10:34;;;;;;;738.50;528.63;;;;;;;;;;5091892;28;20119;-51
2023/08/01 04:12:59;;;;;;;756.80;539.70;;;;;;;;;;5102454;28;20049;-53
2023/08/01 04:15:25;;;;;;;771.42;517.42;;;;;;;;;;5112062;28;20051;-52
2023/08/01 04:17:50;;;;;;;784.83;482.90;;;;;;;;;;5107994;28;20047;-51
2023/08/01 04:20:15;;;;;;;717.45;523.35;;;;;;;;;;5111684;28;20047;-55
2023/08/01 04:22:40;;;;;;;762.42;551.72;;;;;;;;;;5109980;28;20460;-50
2023/08/01 04:25:06;;;;;;;770.10;547.97;;;;;;;;;;5112202;28;20027;-54
2023/08/01 04:27:31;;;;;;;719.30;589.25;;;;;;;;;;5109782;28;20019;-53
2023/08/01 04:29:56;;;;;;;779.35;585.50;;;;;;;;;;5106219;28;20055;-50
2023/08/01 04:32:22;;;;;;;769.20;603.53;;;;;;;;;;5102541;28;20154;-51
2023/08/01 04:34:47;;;;;;;722.13;603.28;;;;;;;;;;5111702;28;20030;-52
2023/08/01 04:37:13;;;;;;;798.92;629.63;;;;;;;;;;5108216;28;20023;-53
2023/08/01 04:39:38;;;;;;;892.85;633.30;;;;;;;;;;5110849;28;20027;-52
2023/08/01 04:42:03;;;;;;;908.53;635.13;;;;;;;;;;5109001;28;20058;-51
2023/08/01 04:44:30;;;;;;;900.17;646.25;;;;;;;;;;5074632;28;20071;-54
2023/08/01 04:46:55;;;;;;;910.80;676.88;;;;;;;;;;5094246;28;20496;-51
2023/08/01 04:49:20;;;;;;;920.90;682.75;;;;;;;;;;5091002;28;20035;-54
2023/08/01 04:51:47;;;;;;;916.58;691.55;;;;;;;;;;5097601;28;20069;-48
2023/08/01 04:54:12;;;;;;;881.67;685.28;;;;;;;;;;5109095;28;20521;-50
2023/08/01 04:56:38;;;;;;;906.55;698.30;;;;;;;;;;5101552;28;20047;-53
2023/08/01 04:59:03;;;;;;;910.20;717.83;;;;;;;;;;5110881;28;20428;-48
2023/08/01 05:01:28;;;;;;;876.22;724.97;;;;;;;;;;5104994;28;20134;-52
2023/08/01 05:03:54;;;;;;;910.13;711.47;;;;;;;;;;5098757;28;20445;-52
2023/08/01 05:06:19;;;;;;;835.38;743.20;;;;;;;;;;5093595;28;20313;-50
2023/08/01 05:08:44;;;;;;;892.87;743.60;;;;;;;;;;5101780;28;20020;-52
2023/08/01 05:11:09;;;;;;;891.90;742.15;;;;;;;;;;5090327;28;20295;-53
2023/08/01 05:13:35;;;;;;;893.15;754.67;;;;;;;;;;5090323;28;20035;-53
2023/08/01 05:16:01;;;;;;;865.47;771.03;;;;;;;;;;5090642;28;20055;-50
2023/08/01 05:18:26;;;;;;;900.50;765.28;;;;;;;;;;5109665;28;20040;-48
2023/08/01 05:20:51;;;;;;;882.83;785.08;;;;;;;;;;5110010;28;20110;-50
2023/08/01 05:23:17;;;;;;;917.35;787.40;;;;;;;;;;5091274;28;20427;-53
2023/08/01 05:25:42;;;;;;;925.75;789.35;;;;;;;;;;5090739;28;20036;-52
2023/08/01 05:28:07;;;;;;;901.97;790.07;;;;;;;;;;5108399;28;20028;-50
2023/08/01 05:30:33;;;;;;;907.00;794.13;;;;;;;;;;5110846;28;20815;-55
2023/08/01 05:32:58;;;;;;;928.00;811.33;;;;;;;;;;5107760;28;20046;-52
2023/08/01 05:35:23;;;;;;;902.58;805.97;;;;;;;;;;5095497;28;20057;-55
2023/08/01 05:37:48;;;;;;;920.20;826.15;;;;;;;;;;5104987;28;20038;-52
2023/08/01 05:40:14;;;;;;;868.53;790.23;;;;;;;;;;5123508;27;20464;-51
2023/08/01 05:42:39;;;;;;;97.50;90.87;;;;;;;;;;5093503;28;20349;-54
2023/08/01 05:45:05;;;;;;;53.60;49.83;;;;;;;;;;5089643;28;20279;-53
2023/08/01 05:47:30;;;;;;;10.65;3.15;;;;;;;;;;5089620;28;20024;-53
2023/08/01 05:49:56;;;;;;;15.30;5.40;;;;;;;;;;5097454;28;20028;-53
2023/08/01 05:52:21;;;;;;;177.52;161.85;;;;;;;;;;5095548;28;20024;-52
2023/08/01 05:54:46;;;;;;;303.45;280.58;;;;;;;;;;5089508;28;20487;-53
2023/08/01 05:57:12;;;;;;;146.65;134.52;;;;;;;;;;5106346;28;20019;-50
2023/08/01 05:59:37;;;;;;;77.93;71.77;;;;;;;;;;5109496;28;20019;-54
2023/08/01 06:02:02;;;;;;;103.82;97.13;;;;;;;;;;5107623;28;20284;-56
2023/08/01 06:04:28;;;;;;;246.30;229.63;;;;;;;;;;5109275;28;20383;-53
2023/08/01 06:06:53;;;;;;;76.00;66.82;;;;;;;;;;5105993;28;20026;-54
2023/08/01 06:09:18;;;;;;;143.88;133.93;;;;;;;;;;5108224;28;20019;-57
2023/08/01 06:11:44;;;;;;;25.37;23.33;;;;;;;;;;5106121;28;20016;-57
2023/08/01 06:14:09;;;;;;;190.27;111.07;;;;;;;;;;5106699;28;20276;-55
2023/08/01 06:16:34;;;;;;;6.45;2.60;;;;;;;;;;5101500;28;20023;-53
2023/08/01 06:19:00;;;;;;;12.47;11.50;;;;;;;;;;5124311;27;20027;-55
2023/08/01 06:21:25;;;;;;;188.63;175.00;;;;;;;;;;5108076;28;20297;-59
2023/08/01 06:23:51;;;;;;;73.82;66.80;;;;;;;;;;5096098;27;20024;-58
2023/08/01 06:26:16;;;;;;;613.63;550.83;;;;;;;;;;5105176;27;20135;-57
2023/08/01 06:28:42;;;;;;;5.70;1.93;;;;;;;;;;5112665;27;20028;-59
2023/08/01 06:31:07;;;;;;;9.45;2.17;;;;;;;;;;5097508;27;20272;-55
2023/08/01 06:33:32;;;;;;;6.18;2.50;;;;;;;;;;5109271;27;20022;-56
2023/08/01 06:35:57;;;;;;;7.15;2.50;;;;;;;;;;5108213;27;20036;-58
2023/08/01 06:38:23;;;;;;;12.23;2.10;;;;;;;;;;5089626;27;20056;-58
2023/08/01 06:40:48;;;;;;;467.13;430.50;;;;;;;;;;5109514;28;20726;-55
2023/08/01 06:43:13;;;;;;;399.53;369.43;;;;;;;;;;5099658;27;20786;-57
2023/08/01 06:45:39;;;;;;;565.10;518.70;;;;;;;;;;5092759;27;20287;-54
2023/08/01 06:48:04;;;;;;;546.90;503.70;;;;;;;;;;5099955;28;20434;-57
2023/08/01 06:50:29;;;;;;;645.72;590.15;;;;;;;;;;5094915;27;20279;-57
2023/08/01 06:52:54;;;;;;;603.37;542.97;;;;;;;;;;5092945;28;20051;-60
2023/08/01 06:55:20;;;;;;;7.77;2.30;;;;;;;;;;5107809;27;20028;-56
2023/08/01 06:57:45;;;;;;;2.73;1.80;;;;;;;;;;5096559;27;20042;-54
2023/08/01 07:00:11;;;;;;;5.30;2.00;;;;;;;;;;5091149;28;20822;-55
2023/08/01 07:02:36;;;;;;;6.82;2.22;;;;;;;;;;5092525;27;20040;-55
2023/08/01 07:05:01;;;;;;;3.50;1.77;;;;;;;;;;5094905;28;20032;-54
2023/08/01 07:07:27;;;;;;;6.33;2.20;;;;;;;;;;5096065;28;20028;-50
2023/08/01 07:09:52;;;;;;;4.60;1.87;;;;;;;;;;5113654;27;20993;-55
2023/08/01 07:12:17;;;;;;;3.33;1.92;;;;;;;;;;5103811;27;20310;-55
2023/08/01 07:14:43;;;;;;;4.43;1.60;;;;;;;;;;5100956;27;20087;-54
2023/08/01 07:17:08;;;;;;;6.13;1.85;;;;;;;;;;5096428;27;20268;-54
2023/08/01 07:19:33;;;;;;;3.47;2.00;;;;;;;;;;5103019;27;20025;-53
2023/08/01 07:21:58;;;;;;;6.07;2.10;;;;;;;;;;5103346;27;20032;-56
2023/08/01 07:24:24;;;;;;;5.43;2.30;;;;;;;;;;5112890;27;20039;-56
2023/08/01 07:26:49;;;;;;;4.53;1.80;;;;;;;;;;5105246;27;20744;-55
2023/08/01 07:29:15;;;;;;;5.70;2.10;;;;;;;;;;5102490;27;20271;-57
2023/08/01 07:31:41;;;;;;;3.65;1.60;;;;;;;;;;5104773;27;20493;-52
2023/08/01 07:34:06;;;;;;;3.05;1.90;;;;;;;;;;5107558;27;20024;-54
2023/08/01 07:36:31;;;;;;;3.57;1.93;;;;;;;;;;5104275;27;20023;-56
2023/08/01 07:38:57;;;;;;;3.53;1.93;;;;;;;;;;5095203;28;20012;-55
2023/08/01 07:41:22;;;;;;;7.13;2.20;;;;;;;;;;5095299;28;20292;-55
2023/08/01 07:43:48;;;;;;;3.60;1.80;;;;;;;;;;5089469;28;20586;-56
2023/08/01 07:46:13;;;;;;;2.97;1.65;;;;;;;;;;5092177;28;20028;-61
2023/08/01 07:48:39;;;;;;;7.83;2.07;;;;;;;;;;5109881;27;20517;-61
2023/08/01 07:51:05;;;;;;;4.65;2.10;;;;;;;;;;5085605;28;20261;-62
2023/08/01 07:53:31;;;;;;;12.90;2.60;;;;;;;;;;5100978;27;20042;-61
2023/08/01 07:55:56;;;;;;;4.05;1.65;;;;;;;;;;5091145;28;20480;-62
2023/08/01 07:58:21;;;;;;;5.03;2.10;;;;;;;;;;5095760;28;20093;-54
2023/08/01 08:00:47;;;;;;;4.55;1.77;;;;;;;;;;5099399;28;20267;-59
2023/08/01 08:03:12;;;;;;;2.92;1.58;;;;;;;;;;5100497;28;20030;-58
2023/08/01 08:05:38;;;;;;;8.80;1.90;;;;;;;;;;5098980;28;20560;-56
2023/08/01 08:08:04;;;;;;;12.82;2.60;;;;;;;;;;5097193;28;20263;-54
2023/08/01 08:10:29;;;;;;;4.80;1.73;;;;;;;;;;5100109;28;20483;-54
2023/08/01 08:12:54;;;;;;;3.33;1.73;;;;;;;;;;5091478;28;20054;-53
2023/08/01 08:15:20;;;;;;;10.03;2.27;;;;;;;;;;5095202;28;20635;-56
2023/08/01 08:17:45;;;;;;;11.65;2.20;;;;;;;;;;5090914;28;20085;-57
2023/08/01 08:20:10;;;;;;;4.27;1.80;;;;;;;;;;5093244;28;20678;-55
2023/08/01 08:22:35;;;;;;;6.07;2.00;;;;;;;;;;5090539;28;20023;-53
2023/08/01 08:25:01;;;;;;;5.80;2.03;;;;;;;;;;5091375;28;20284;-58
2023/08/01 08:27:26;;;;;;;6.20;1.63;;;;;;;;;;5093953;28;20050;-60
2023/08/01 08:29:51;;;;;;;7.15;2.30;;;;;;;;;;5097219;27;20047;-54
2023/08/01 08:32:17;;;;;;;3.90;1.70;;;;;;;;;;5096703;27;20029;-57
2023/08/01 08:34:42;;;;;;;4.20;1.73;;;;;;;;;;5095253;27;20553;-59
2023/08/01 08:37:07;;;;;;;6.70;2.40;;;;;;;;;;5101201;27;20032;-58
2023/08/01 08:39:32;;;;;;;4.70;1.97;;;;;;;;;;5100947;27;20527;-59
2023/08/01 08:41:59;;;;;;;6.07;2.00;;;;;;;;;;5103855;28;20264;-59
2023/08/01 08:44:24;;;;;;;4.95;1.95;;;;;;;;;;5098019;27;20146;-57
2023/08/01 08:46:51;;;;;;;4.43;2.13;;;;;;;;;;5104685;27;20096;-57
2023/08/01 08:49:19;;;;;;;4.97;2.05;;;;;;;;;;5094136;27;20043;-55
2023/08/01 08:51:45;;;;;;;4.18;1.40;;;;;;;;;;5094846;28;20031;-55
2023/08/01 08:54:11;;;;;;;6.20;1.92;;;;;;;;;;5101946;27;20023;-47
2023/08/01 08:56:38;;;;;;;6.00;2.00;;;;;;;;;;5095124;27;20016;-55
2023/08/01 08:59:03;;;;;;;13.35;2.33;;;;;;;;;;5105872;27;20019;-55
2023/08/01 09:01:31;;;;;;;3.65;1.88;;;;;;;;;;5098573;27;20473;-57
2023/08/01 09:03:57;;;;;;;3.40;1.73;;;;;;;;;;5114779;27;20120;-56
2023/08/01 09:06:29;;;;;;;8.23;2.22;;;;;;;;;;5097434;27;20632;-54
2023/08/01 09:09:01;;;;;;;10.93;1.90;;;;;;;;;;5094324;27;20035;-59
2023/08/01 09:11:26;;;;;;;12.15;2.33;;;;;;;;;;5094330;27;20035;-57
2023/08/01 09:13:51;;;;;;;5.85;1.80;;;;;;;;;;5095922;27;20024;-56
2023/08/01 09:16:16;;;;;;;8.93;1.90;;;;;;;;;;5094864;27;20055;-58
2023/08/01 09:18:51;;;;;;;6.30;1.73;;;;;;;;;;5093732;28;20105;-56
2023/08/01 09:21:20;;;;;;;4.03;1.83;;;;;;;;;;5115209;27;20465;-57
2023/08/01 09:23:46;;;;;;;9.07;1.77;;;;;;;;;;5129456;27;20487;-61
2023/08/01 09:26:17;;;;;;;6.55;1.67;;;;;;;;;;5094343;27;20193;-57
2023/08/01 09:28:43;;;;;;;4.00;1.60;;;;;;;;;;5094666;28;20080;-61
2023/08/01 09:31:09;;;;;;;4.72;1.50;;;;;;;;;;5096790;27;20024;-58
2023/08/01 09:33:39;;;;;;;6.80;2.40;;;;;;;;;;5098382;27;20034;-58
2023/08/01 09:36:05;;;;;;;4.70;1.80;;;;;;;;;;5097355;28;20084;-58
2023/08/01 09:38:33;;;;;;;4.32;2.30;;;;;;;;;;5091690;27;20027;-48
2023/08/01 09:40:58;;;;;;;5.93;1.60;;;;;;;;;;5095003;28;20028;-55
2023/08/01 09:43:24;;;;;;;3.17;1.95;;;;;;;;;;5099115;27;20072;-51
2023/08/01 09:45:53;;;;;;;4.53;1.90;;;;;;;;;;5108661;27;20031;-52
2023/08/01 09:48:36;;;;;;;2.90;1.60;;;;;;;;;;5108460;28;20243;-51
2023/08/01 09:51:05;;;;;;;7.97;1.98;;;;;;;;;;5092597;27;20032;-49
2023/08/01 09:53:31;;;;;;;4.05;1.70;;;;;;;;;;5097360;28;20111;-49
2023/08/01 09:55:58;;;;;;;3.42;1.40;;;;;;;;;;5104580;27;20110;-55
2023/08/01 09:58:24;;;;;;;2.60;1.67;;;;;;;;;;5120053;27;20385;-54
2023/08/01 10:00:50;;;;;;;3.03;1.58;;;;;;;;;;5086835;28;20024;-57
2023/08/01 10:03:16;;;;;;;2.97;1.80;;;;;;;;;;5128652;27;20023;-56
2023/08/01 10:05:41;;;;;;;9.70;2.10;;;;;;;;;;5128525;27;20035;-55
2023/08/01 10:08:07;;;;;;;4.97;1.77;;;;;;;;;;5124415;27;20023;-58
2023/08/01 10:10:33;;;;;;;5.00;2.10;;;;;;;;;;5093623;27;20102;-57
2023/08/01 10:13:00;;;;;;;3.70;1.65;;;;;;;;;;5101368;28;20023;-58
2023/08/01 10:15:26;;;;;;;3.17;1.50;;;;;;;;;;5089122;28;20062;-58
2023/08/01 10:17:52;;;;;;;4.47;1.60;;;;;;;;;;5110859;28;20024;-57
2023/08/01 10:20:18;;;;;;;4.72;2.30;;;;;;;;;;5114850;28;20111;-54
2023/08/01 10:22:44;;;;;;;2.72;1.73;;;;;;;;;;5094414;27;20514;-52
2023/08/01 10:25:10;;;;;;;6.45;2.00;;;;;;;;;;5087974;28;20399;-54
2023/08/01 10:27:36;;;;;;;6.68;2.10;;;;;;;;;;5087229;28;20028;-55
2023/08/01 10:30:02;;;;;;;3.60;1.85;;;;;;;;;;5107841;28;20349;-54
2023/08/01 10:32:38;;;;;;;6.53;2.10;;;;;;;;;;5102369;28;20016;-57
2023/08/01 10:35:04;;;;;;;5.45;2.25;;;;;;;;;;5087017;28;20028;-55
2023/08/01 10:37:47;;;;;;;4.53;2.33;;;;;;;;;;5101711;28;20042;-56
2023/08/01 10:40:12;;;;;;;2.35;1.58;;;;;;;;;;5102225;27;20484;-54
2023/08/01 10:42:38;;;;;;;3.42;1.67;;;;;;;;;;5128831;27;20044;-54
2023/08/01 10:45:04;;;;;;;2.47;1.40;;;;;;;;;;5128479;27;20034;-56
2023/08/01 10:47:30;;;;;;;2.72;1.60;;;;;;;;;;5128484;27;20027;-57
2023/08/01 10:49:55;;;;;;;4.53;2.30;;;;;;;;;;5110998;28;20043;-57
2023/08/01 10:52:28;;;;;;;2.73;1.57;;;;;;;;;;5086986;28;20461;-54
2023/08/01 10:54:58;;;;;;;3.60;1.80;;;;;;;;;;5086953;28;20253;-52
2023/08/01 10:57:23;;;;;;;2.28;1.50;;;;;;;;;;5122648;27;20023;-52
2023/08/01 10:59:49;;;;;;;2.70;1.88;;;;;;;;;;5128346;27;20124;-57
2023/08/01 11:02:19;;;;;;;3.00;1.73;;;;;;;;;;5118305;27;20031;-54
2023/08/01 11:04:54;;;;;;;3.65;1.95;;;;;;;;;;5107383;28;20280;-60
2023/08/01 11:07:19;;;;;;;2.85;1.60;;;;;;;;;;5090911;28;20020;-56
2023/08/01 11:09:44;;;;;;;3.87;1.60;;;;;;;;;;5092453;28;20031;-54
2023/08/01 11:12:10;;;;;;;2.53;1.50;;;;;;;;;;5099662;28;20759;-59
2023/08/01 11:14:35;;;;;;;6.20;2.28;;;;;;;;;;5108063;27;20052;-51
2023/08/01 11:17:00;;;;;;;3.65;1.58;;;;;;;;;;5101064;28;20411;-55
2023/08/01 11:19:26;;;;;;;3.05;1.60;;;;;;;;;;5114921;27;20058;-53
2023/08/01 11:21:52;;;;;;;3.80;1.50;;;;;;;;;;5098699;27;20338;-58
2023/08/01 11:24:18;;;;;;;10.40;1.77;;;;;;;;;;5096794;28;20696;-59
2023/08/01 11:26:44;;;;;;;4.63;1.60;;;;;;;;;;5098369;28;20030;-54
2023/08/01 11:29:11;;;;;;;3.72;1.67;;;;;;;;;;5099758;28;20525;-55
2023/08/01 11:31:36;;;;;;;7.35;1.95;;;;;;;;;;5099432;28;20016;-51
2023/08/01 11:34:01;;;;;;;3.67;1.57;;;;;;;;;;5095911;28;20080;-54
2023/08/01 11:36:27;;;;;;;3.95;1.50;;;;;;;;;;5104705;28;20379;-47
2023/08/01 11:38:53;;;;;;;1.98;1.50;;;;;;;;;;5104975;28;20096;-55
2023/08/01 11:41:18;;;;;;;2.15;1.63;;;;;;;;;;5096711;28;20461;-54
2023/08/01 11:43:43;;;;;;;5.63;1.35;;;;;;;;;;5089722;27;20024;-54
2023/08/01 11:46:09;;;;;;;3.63;1.90;;;;;;;;;;5097375;28;20441;-54
2023/08/01 11:48:35;;;;;;;3.53;1.55;;;;;;;;;;5116900;27;20028;-52
2023/08/01 11:51:01;;;;;;;5.93;1.65;;;;;;;;;;5110600;28;20023;-53
2023/08/01 11:53:26;;;;;;;148.77;9.50;;;;;;;;;;5101171;28;20735;-51
2023/08/01 11:55:52;;;;;;;3.20;1.52;;;;;;;;;;5096827;27;20368;-51
2023/08/01 11:58:28;;;;;;;5.78;1.75;;;;;;;;;;5097142;28;20023;-51
2023/08/01 12:01:01;;;;;;;6.25;1.77;;;;;;;;;;5095958;28;20024;-54
2023/08/01 12:03:26;;;;;;;2.50;1.50;;;;;;;;;;5104609;27;20020;-54
2023/08/01 12:05:52;;;;;;;5.30;1.70;;;;;;;;;;5093331;28;20080;-55
2023/08/01 12:08:17;;;;;;;2.07;1.50;;;;;;;;;;5095671;28;20263;-53
2023/08/01 12:10:43;;;;;;;5.20;1.60;;;;;;;;;;5102685;27;20166;-54
2023/08/01 12:13:21;;;;;;;6.53;1.73;;;;;;;;;;5100735;28;20383;-53
2023/08/01 12:15:48;;;;;;;2.00;1.30;;;;;;;;;;5101124;28;20048;-53
2023/08/01 12:18:19;;;;;;;11.65;1.90;;;;;;;;;;5098376;28;20431;-51
2023/08/01 12:20:44;;;;;;;4.28;1.60;;;;;;;;;;5095794;28;20023;-55
2023/08/01 12:23:10;;;;;;;3.13;1.50;;;;;;;;;;5101171;28;20627;-55
2023/08/01 12:25:35;;;;;;;5.40;1.40;;;;;;;;;;5101881;27;20288;-49
2023/08/01 12:28:00;;;;;;;4.03;1.38;;;;;;;;;;5090296;28;20694;-50
2023/08/01 12:30:25;;;;;;;3.23;1.60;;;;;;;;;;5088098;28;20415;-50
2023/08/01 12:32:51;;;;;;;3.73;1.70;;;;;;;;;;5093019;28;20268;-47
2023/08/01 12:35:16;;;;;;;2.20;1.57;;;;;;;;;;5086775;27;20391;-48
2023/08/01 12:37:41;;;;;;;2.43;1.50;;;;;;;;;;5091031;27;20398;-48
2023/08/01 12:40:07;;;;;;;2.03;1.23;;;;;;;;;;5088328;28;20024;-53
2023/08/01 12:42:32;;;;;;;7.57;1.95;;;;;;;;;;5105450;28;20031;-50
2023/08/01 12:44:57;;;;;;;2.67;1.50;;;;;;;;;;5096801;27;20028;-54
2023/08/01 12:47:22;;;;;;;3.05;1.70;;;;;;;;;;5109321;28;20020;-55
2023/08/01 12:49:49;;;;;;;4.80;1.75;;;;;;;;;;5098025;28;20377;-52
2023/08/01 12:52:21;;;;;;;6.55;1.80;;;;;;;;;;5108618;27;20103;-53
2023/08/01 12:54:47;;;;;;;6.00;1.55;;;;;;;;;;5100888;27;20077;-51
2023/08/01 12:57:12;;;;;;;5.83;1.50;;;;;;;;;;5088727;28;20031;-51
2023/08/01 12:59:37;;;;;;;8.20;1.80;;;;;;;;;;5088495;28;20990;-49
2023/08/01 13:02:08;;;;;;;7.47;1.50;;;;;;;;;;5094624;27;20018;-55
2023/08/01 13:04:33;;;;;;;3.45;1.58;;;;;;;;;;5110482;27;20043;-56
2023/08/01 13:06:58;;;;;;;4.13;1.30;;;;;;;;;;5092486;28;20353;-54
2023/08/01 13:09:23;;;;;;;5.63;1.70;;;;;;;;;;5102665;28;20035;-50
2023/08/01 13:11:49;;;;;;;3.23;1.30;;;;;;;;;;5103504;28;20036;-51
2023/08/01 13:14:14;;;;;;;2.60;1.63;;;;;;;;;;5098744;28;20031;-50
2023/08/01 13:16:39;;;;;;;5.70;1.92;;;;;;;;;;5095923;27;20016;-50
2023/08/01 13:19:06;;;;;;;7.20;2.10;;;;;;;;;;5089131;28;20491;-56
2023/08/01 13:21:31;;;;;;;7.93;1.92;;;;;;;;;;5097139;28;20909;-54
2023/08/01 13:23:56;;;;;;;11.65;2.22;;;;;;;;;;5094635;28;20036;-56
2023/08/01 13:26:22;;;;;;;5.93;1.17;;;;;;;;;;5089259;28;20465;-52
2023/08/01 13:28:47;;;;;;;5.23;1.70;;;;;;;;;;5099576;28;20023;-50
2023/08/01 13:31:12;;;;;;;5.40;2.00;;;;;;;;;;5097575;28;20012;-48
2023/08/01 13:33:37;;;;;;;4.72;1.88;;;;;;;;;;5091700;28;20078;-51
2023/08/01 13:36:03;;;;;;;3.27;1.30;;;;;;;;;;5098205;28;20047;-51
2023/08/01 13:38:29;;;;;;;6.77;1.33;;;;;;;;;;5090693;28;20024;-51
2023/08/01 13:40:54;;;;;;;6.93;1.77;;;;;;;;;;5088063;28;20031;-53
2023/08/01 13:43:19;;;;;;;6.90;1.80;;;;;;;;;;5108548;28;20030;-54
2023/08/01 13:45:45;;;;;;;4.17;1.50;;;;;;;;;;5097107;28;20299;-49
2023/08/01 13:48:10;;;;;;;2.67;1.40;;;;;;;;;;5100088;27;20810;-53
2023/08/01 13:50:36;;;;;;;6.13;1.75;;;;;;;;;;5091011;28;20252;-49
2023/08/01 13:53:01;;;;;;;2.28;1.65;;;;;;;;;;5100483;28;20122;-50
2023/08/01 13:55:26;;;;;;;4.80;1.63;;;;;;;;;;5090926;28;20184;-53
2023/08/01 13:57:51;;;;;;;3.33;1.70;;;;;;;;;;5098167;28;20469;-52
2023/08/01 14:00:17;;;;;;;4.87;2.20;;;;;;;;;;5102731;28;20020;-50
2023/08/01 14:02:42;;;;;;;10.93;2.13;;;;;;;;;;5106499;27;20032;-52
2023/08/01 14:05:07;;;;;;;6.67;1.80;;;;;;;;;;5098771;28;20031;-53
2023/08/01 14:07:35;;;;;;;11.40;2.15;;;;;;;;;;5101994;28;20027;-56
2023/08/01 14:10:00;;;;;;;4.07;1.80;;;;;;;;;;5099428;28;20039;-54